sensor_id;sensor_type;location;lat;lon;timestamp;P1;durP1;ratioP1;P2;durP2;ratioP2
3571;SDS011;7958;53.024;12.970;2022-10-16T00:02:07;7.10;;;2.23;;
3571;SDS011;7958;53.024;12.970;2022-10-16T00:04:35;5.03;;;2.50;;
3571;SDS011;7958;53.024;12.970;2022-10-16T00:07:01;3.10;;;2.50;;
3571;SDS011;7958;53.024;12.970;2022-10-16T00:09:27;2.43;;;2.23;;
3571;SDS011;7958;53.024;12.970;2022-10-16T00:11:54;1.80;;;1.70;;
3571;SDS011;7958;53.024;12.970;2022-10-16T00:14:21;3.60;;;2.10;;
3571;SDS011;7958;53.024;12.970;2022-10-16T00:16:47;2.40;;;2.20;;
3571;SDS011;7958;53.024;12.970;2022-10-16T00:19:14;3.83;;;2.10;;
3571;SDS011;7958;53.024;12.970;2022-10-16T00:21:42;2.10;;;1.90;;
3571;SDS011;7958;53.024;12.970;2022-10-16T00:24:08;2.00;;;1.90;;
3571;SDS011;7958;53.024;12.970;2022-10-16T00:26:35;4.63;;;2.10;;
3571;SDS011;7958;53.024;12.970;2022-10-16T00:29:02;3.10;;;2.00;;
3571;SDS011;7958;53.024;12.970;2022-10-16T00:31:29;1.87;;;1.77;;
3571;SDS011;7958;53.024;12.970;2022-10-16T00:33:56;2.10;;;2.00;;
3571;SDS011;7958;53.024;12.970;2022-10-16T00:36:23;2.93;;;2.10;;
3571;SDS011;7958;53.024;12.970;2022-10-16T00:38:52;3.07;;;2.40;;
3571;SDS011;7958;53.024;12.970;2022-10-16T00:41:20;2.40;;;2.20;;
3571;SDS011;7958;53.024;12.970;2022-10-16T00:43:48;2.07;;;1.90;;
3571;SDS011;7958;53.024;12.970;2022-10-16T00:46:16;2.20;;;2.10;;
3571;SDS011;7958;53.024;12.970;2022-10-16T00:48:45;2.20;;;2.00;;
3571;SDS011;7958;53.024;12.970;2022-10-16T00:51:15;2.00;;;1.83;;
3571;SDS011;7958;53.024;12.970;2022-10-16T00:53:44;2.40;;;2.20;;
3571;SDS011;7958;53.024;12.970;2022-10-16T00:56:11;1.90;;;1.80;;
3571;SDS011;7958;53.024;12.970;2022-10-16T00:58:38;2.70;;;1.90;;
3571;SDS011;7958;53.024;12.970;2022-10-16T01:01:04;2.07;;;1.87;;
3571;SDS011;7958;53.024;12.970;2022-10-16T01:03:32;2.23;;;1.90;;
3571;SDS011;7958;53.024;12.970;2022-10-16T01:06:03;2.57;;;2.07;;
3571;SDS011;7958;53.024;12.970;2022-10-16T01:08:37;3.13;;;1.90;;
3571;SDS011;7958;53.024;12.970;2022-10-16T01:11:07;1.87;;;1.77;;
3571;SDS011;7958;53.024;12.970;2022-10-16T01:13:41;3.80;;;2.13;;
3571;SDS011;7958;53.024;12.970;2022-10-16T01:16:11;1.90;;;1.80;;
3571;SDS011;7958;53.024;12.970;2022-10-16T01:18:42;2.13;;;1.63;;
3571;SDS011;7958;53.024;12.970;2022-10-16T01:21:10;2.90;;;2.07;;
3571;SDS011;7958;53.024;12.970;2022-10-16T01:23:43;1.97;;;1.87;;
3571;SDS011;7958;53.024;12.970;2022-10-16T01:26:20;2.00;;;1.90;;
3571;SDS011;7958;53.024;12.970;2022-10-16T01:28:57;1.97;;;1.77;;
3571;SDS011;7958;53.024;12.970;2022-10-16T01:31:29;3.47;;;1.70;;
3571;SDS011;7958;53.024;12.970;2022-10-16T01:33:59;2.10;;;2.00;;
3571;SDS011;7958;53.024;12.970;2022-10-16T01:36:28;2.40;;;1.93;;
3571;SDS011;7958;53.024;12.970;2022-10-16T01:38:58;1.60;;;1.53;;
3571;SDS011;7958;53.024;12.970;2022-10-16T01:41:26;1.80;;;1.70;;
3571;SDS011;7958;53.024;12.970;2022-10-16T01:43:58;2.10;;;2.00;;
3571;SDS011;7958;53.024;12.970;2022-10-16T01:46:28;1.80;;;1.70;;
3571;SDS011;7958;53.024;12.970;2022-10-16T01:48:57;2.30;;;2.10;;
3571;SDS011;7958;53.024;12.970;2022-10-16T01:51:25;2.33;;;2.10;;
3571;SDS011;7958;53.024;12.970;2022-10-16T01:53:53;2.63;;;2.00;;
3571;SDS011;7958;53.024;12.970;2022-10-16T01:56:20;1.60;;;1.50;;
3571;SDS011;7958;53.024;12.970;2022-10-16T01:58:49;2.00;;;1.90;;
3571;SDS011;7958;53.024;12.970;2022-10-16T02:01:20;1.80;;;1.70;;
3571;SDS011;7958;53.024;12.970;2022-10-16T02:03:49;1.70;;;1.60;;
3571;SDS011;7958;53.024;12.970;2022-10-16T02:06:18;1.77;;;1.67;;
3571;SDS011;7958;53.024;12.970;2022-10-16T02:08:45;2.00;;;1.80;;
3571;SDS011;7958;53.024;12.970;2022-10-16T02:11:11;1.90;;;1.63;;
3571;SDS011;7958;53.024;12.970;2022-10-16T02:13:38;2.13;;;2.00;;
3571;SDS011;7958;53.024;12.970;2022-10-16T02:16:08;5.73;;;2.03;;
3571;SDS011;7958;53.024;12.970;2022-10-16T02:18:36;1.73;;;1.63;;
3571;SDS011;7958;53.024;12.970;2022-10-16T02:21:05;2.60;;;1.83;;
3571;SDS011;7958;53.024;12.970;2022-10-16T02:23:35;1.90;;;1.80;;
3571;SDS011;7958;53.024;12.970;2022-10-16T02:26:06;3.50;;;2.10;;
3571;SDS011;7958;53.024;12.970;2022-10-16T02:28:34;1.67;;;1.57;;
3571;SDS011;7958;53.024;12.970;2022-10-16T02:31:04;2.43;;;1.80;;
3571;SDS011;7958;53.024;12.970;2022-10-16T02:33:33;1.80;;;1.70;;
3571;SDS011;7958;53.024;12.970;2022-10-16T02:36:01;3.13;;;1.73;;
3571;SDS011;7958;53.024;12.970;2022-10-16T02:38:30;1.67;;;1.57;;
3571;SDS011;7958;53.024;12.970;2022-10-16T02:40:57;1.67;;;1.57;;
3571;SDS011;7958;53.024;12.970;2022-10-16T02:43:24;1.70;;;1.60;;
3571;SDS011;7958;53.024;12.970;2022-10-16T02:45:50;1.70;;;1.60;;
3571;SDS011;7958;53.024;12.970;2022-10-16T02:48:17;1.73;;;1.63;;
3571;SDS011;7958;53.024;12.970;2022-10-16T02:50:44;2.00;;;1.80;;
3571;SDS011;7958;53.024;12.970;2022-10-16T02:53:12;2.00;;;1.90;;
3571;SDS011;7958;53.024;12.970;2022-10-16T02:55:38;1.67;;;1.57;;
3571;SDS011;7958;53.024;12.970;2022-10-16T02:58:05;1.97;;;1.80;;
3571;SDS011;7958;53.024;12.970;2022-10-16T03:00:31;2.07;;;1.90;;
3571;SDS011;7958;53.024;12.970;2022-10-16T03:02:58;3.83;;;1.70;;
3571;SDS011;7958;53.024;12.970;2022-10-16T03:05:25;2.00;;;1.90;;
3571;SDS011;7958;53.024;12.970;2022-10-16T03:07:51;2.97;;;2.10;;
3571;SDS011;7958;53.024;12.970;2022-10-16T03:10:19;1.60;;;1.50;;
3571;SDS011;7958;53.024;12.970;2022-10-16T03:12:46;1.97;;;1.87;;
3571;SDS011;7958;53.024;12.970;2022-10-16T03:15:13;1.80;;;1.70;;
3571;SDS011;7958;53.024;12.970;2022-10-16T03:17:39;3.73;;;2.60;;
3571;SDS011;7958;53.024;12.970;2022-10-16T03:20:08;5.03;;;2.53;;
3571;SDS011;7958;53.024;12.970;2022-10-16T03:22:35;2.30;;;2.10;;
3571;SDS011;7958;53.024;12.970;2022-10-16T03:25:02;3.27;;;2.43;;
3571;SDS011;7958;53.024;12.970;2022-10-16T03:27:31;6.50;;;3.57;;
3571;SDS011;7958;53.024;12.970;2022-10-16T03:29:57;2.00;;;1.90;;
3571;SDS011;7958;53.024;12.970;2022-10-16T03:32:24;1.60;;;1.50;;
3571;SDS011;7958;53.024;12.970;2022-10-16T03:34:50;5.93;;;3.23;;
3571;SDS011;7958;53.024;12.970;2022-10-16T03:37:19;9.10;;;2.80;;
3571;SDS011;7958;53.024;12.970;2022-10-16T03:39:45;2.00;;;1.90;;
3571;SDS011;7958;53.024;12.970;2022-10-16T03:42:12;2.90;;;1.80;;
3571;SDS011;7958;53.024;12.970;2022-10-16T03:44:40;1.90;;;1.80;;
3571;SDS011;7958;53.024;12.970;2022-10-16T03:47:06;2.13;;;2.00;;
3571;SDS011;7958;53.024;12.970;2022-10-16T03:49:32;1.77;;;1.67;;
3571;SDS011;7958;53.024;12.970;2022-10-16T03:51:59;1.73;;;1.63;;
3571;SDS011;7958;53.024;12.970;2022-10-16T03:54:26;2.43;;;1.70;;
3571;SDS011;7958;53.024;12.970;2022-10-16T03:56:53;2.60;;;2.00;;
3571;SDS011;7958;53.024;12.970;2022-10-16T03:59:19;1.80;;;1.70;;
3571;SDS011;7958;53.024;12.970;2022-10-16T04:01:47;1.80;;;1.70;;
3571;SDS011;7958;53.024;12.970;2022-10-16T04:04:13;1.80;;;1.70;;
3571;SDS011;7958;53.024;12.970;2022-10-16T04:06:40;1.83;;;1.67;;
3571;SDS011;7958;53.024;12.970;2022-10-16T04:09:06;2.00;;;1.67;;
3571;SDS011;7958;53.024;12.970;2022-10-16T04:11:32;2.93;;;1.50;;
3571;SDS011;7958;53.024;12.970;2022-10-16T04:13:59;2.10;;;1.90;;
3571;SDS011;7958;53.024;12.970;2022-10-16T04:16:26;7.60;;;3.07;;
3571;SDS011;7958;53.024;12.970;2022-10-16T04:18:54;3.00;;;2.30;;
3571;SDS011;7958;53.024;12.970;2022-10-16T04:21:20;4.00;;;2.00;;
3571;SDS011;7958;53.024;12.970;2022-10-16T04:23:47;1.97;;;1.87;;
3571;SDS011;7958;53.024;12.970;2022-10-16T04:26:14;3.07;;;1.70;;
3571;SDS011;7958;53.024;12.970;2022-10-16T04:28:41;5.03;;;1.70;;
3571;SDS011;7958;53.024;12.970;2022-10-16T04:31:07;2.20;;;2.00;;
3571;SDS011;7958;53.024;12.970;2022-10-16T04:33:33;1.70;;;1.60;;
3571;SDS011;7958;53.024;12.970;2022-10-16T04:36:02;4.30;;;1.40;;
3571;SDS011;7958;53.024;12.970;2022-10-16T04:38:29;2.47;;;1.67;;
3571;SDS011;7958;53.024;12.970;2022-10-16T04:40:56;1.50;;;1.40;;
3571;SDS011;7958;53.024;12.970;2022-10-16T04:43:23;5.50;;;2.40;;
3571;SDS011;7958;53.024;12.970;2022-10-16T04:45:49;2.50;;;2.03;;
3571;SDS011;7958;53.024;12.970;2022-10-16T04:48:16;2.63;;;2.23;;
3571;SDS011;7958;53.024;12.970;2022-10-16T04:50:43;4.30;;;1.63;;
3571;SDS011;7958;53.024;12.970;2022-10-16T04:53:11;1.80;;;1.70;;
3571;SDS011;7958;53.024;12.970;2022-10-16T04:55:37;1.60;;;1.50;;
3571;SDS011;7958;53.024;12.970;2022-10-16T04:58:04;1.80;;;1.67;;
3571;SDS011;7958;53.024;12.970;2022-10-16T05:00:31;1.60;;;1.50;;
3571;SDS011;7958;53.024;12.970;2022-10-16T05:02:57;1.80;;;1.47;;
3571;SDS011;7958;53.024;12.970;2022-10-16T05:05:25;1.90;;;1.80;;
3571;SDS011;7958;53.024;12.970;2022-10-16T05:07:52;2.83;;;1.70;;
3571;SDS011;7958;53.024;12.970;2022-10-16T05:10:20;2.77;;;1.53;;
3571;SDS011;7958;53.024;12.970;2022-10-16T05:12:47;1.70;;;1.60;;
3571;SDS011;7958;53.024;12.970;2022-10-16T05:15:13;1.70;;;1.60;;
3571;SDS011;7958;53.024;12.970;2022-10-16T05:17:40;2.80;;;1.63;;
3571;SDS011;7958;53.024;12.970;2022-10-16T05:20:07;3.10;;;1.40;;
3571;SDS011;7958;53.024;12.970;2022-10-16T05:22:33;2.10;;;1.63;;
3571;SDS011;7958;53.024;12.970;2022-10-16T05:25:00;3.40;;;1.60;;
3571;SDS011;7958;53.024;12.970;2022-10-16T05:27:28;1.90;;;1.70;;
3571;SDS011;7958;53.024;12.970;2022-10-16T05:29:54;1.57;;;1.47;;
3571;SDS011;7958;53.024;12.970;2022-10-16T05:32:21;1.80;;;1.70;;
3571;SDS011;7958;53.024;12.970;2022-10-16T05:34:47;1.83;;;1.73;;
3571;SDS011;7958;53.024;12.970;2022-10-16T05:37:13;3.23;;;1.30;;
3571;SDS011;7958;53.024;12.970;2022-10-16T05:39:40;2.33;;;1.70;;
3571;SDS011;7958;53.024;12.970;2022-10-16T05:42:06;2.30;;;1.90;;
3571;SDS011;7958;53.024;12.970;2022-10-16T05:44:34;6.83;;;1.70;;
3571;SDS011;7958;53.024;12.970;2022-10-16T05:47:01;6.03;;;2.20;;
3571;SDS011;7958;53.024;12.970;2022-10-16T05:49:27;3.57;;;2.20;;
3571;SDS011;7958;53.024;12.970;2022-10-16T05:51:54;2.80;;;2.00;;
3571;SDS011;7958;53.024;12.970;2022-10-16T05:54:20;1.50;;;1.40;;
3571;SDS011;7958;53.024;12.970;2022-10-16T05:56:47;2.40;;;1.90;;
3571;SDS011;7958;53.024;12.970;2022-10-16T05:59:13;2.07;;;1.70;;
3571;SDS011;7958;53.024;12.970;2022-10-16T06:01:41;3.60;;;1.93;;
3571;SDS011;7958;53.024;12.970;2022-10-16T06:04:08;1.83;;;1.50;;
3571;SDS011;7958;53.024;12.970;2022-10-16T06:06:35;1.80;;;1.70;;
3571;SDS011;7958;53.024;12.970;2022-10-16T06:09:03;2.00;;;1.50;;
3571;SDS011;7958;53.024;12.970;2022-10-16T06:11:30;1.77;;;1.60;;
3571;SDS011;7958;53.024;12.970;2022-10-16T06:13:58;2.63;;;1.70;;
3571;SDS011;7958;53.024;12.970;2022-10-16T06:16:28;3.33;;;1.90;;
3571;SDS011;7958;53.024;12.970;2022-10-16T06:18:55;4.50;;;1.77;;
3571;SDS011;7958;53.024;12.970;2022-10-16T06:21:24;1.70;;;1.60;;
3571;SDS011;7958;53.024;12.970;2022-10-16T06:23:52;2.00;;;1.90;;
3571;SDS011;7958;53.024;12.970;2022-10-16T06:26:20;6.13;;;2.40;;
3571;SDS011;7958;53.024;12.970;2022-10-16T06:28:47;1.70;;;1.60;;
3571;SDS011;7958;53.024;12.970;2022-10-16T06:31:15;3.27;;;1.50;;
3571;SDS011;7958;53.024;12.970;2022-10-16T06:33:44;2.50;;;1.43;;
3571;SDS011;7958;53.024;12.970;2022-10-16T06:36:13;2.00;;;1.53;;
3571;SDS011;7958;53.024;12.970;2022-10-16T06:38:44;1.37;;;1.27;;
3571;SDS011;7958;53.024;12.970;2022-10-16T06:41:11;1.80;;;1.70;;
3571;SDS011;7958;53.024;12.970;2022-10-16T06:43:38;1.97;;;1.70;;
3571;SDS011;7958;53.024;12.970;2022-10-16T06:46:06;2.37;;;1.80;;
3571;SDS011;7958;53.024;12.970;2022-10-16T06:48:34;5.10;;;2.10;;
3571;SDS011;7958;53.024;12.970;2022-10-16T06:51:01;2.67;;;1.60;;
3571;SDS011;7958;53.024;12.970;2022-10-16T06:53:32;1.63;;;1.53;;
3571;SDS011;7958;53.024;12.970;2022-10-16T06:56:06;1.97;;;1.77;;
3571;SDS011;7958;53.024;12.970;2022-10-16T06:58:33;2.37;;;1.47;;
3571;SDS011;7958;53.024;12.970;2022-10-16T07:01:00;2.37;;;1.83;;
3571;SDS011;7958;53.024;12.970;2022-10-16T07:03:27;1.67;;;1.57;;
3571;SDS011;7958;53.024;12.970;2022-10-16T07:05:53;1.70;;;1.60;;
3571;SDS011;7958;53.024;12.970;2022-10-16T07:08:20;3.33;;;2.20;;
3571;SDS011;7958;53.024;12.970;2022-10-16T07:10:48;2.00;;;1.90;;
3571;SDS011;7958;53.024;12.970;2022-10-16T07:13:24;1.60;;;1.50;;
3571;SDS011;7958;53.024;12.970;2022-10-16T07:15:51;2.60;;;1.80;;
3571;SDS011;7958;53.024;12.970;2022-10-16T07:18:18;2.60;;;1.70;;
3571;SDS011;7958;53.024;12.970;2022-10-16T07:20:45;4.70;;;2.20;;
3571;SDS011;7958;53.024;12.970;2022-10-16T07:23:11;5.20;;;1.70;;
3571;SDS011;7958;53.024;12.970;2022-10-16T07:25:38;2.63;;;1.50;;
3571;SDS011;7958;53.024;12.970;2022-10-16T07:28:06;1.50;;;1.40;;
3571;SDS011;7958;53.024;12.970;2022-10-16T07:30:34;1.53;;;1.43;;
3571;SDS011;7958;53.024;12.970;2022-10-16T07:33:01;1.60;;;1.50;;
3571;SDS011;7958;53.024;12.970;2022-10-16T07:35:30;2.50;;;1.47;;
3571;SDS011;7958;53.024;12.970;2022-10-16T07:37:56;2.00;;;1.90;;
3571;SDS011;7958;53.024;12.970;2022-10-16T07:40:23;1.97;;;1.77;;
3571;SDS011;7958;53.024;12.970;2022-10-16T07:42:52;1.80;;;1.70;;
3571;SDS011;7958;53.024;12.970;2022-10-16T07:45:19;1.70;;;1.60;;
3571;SDS011;7958;53.024;12.970;2022-10-16T07:47:46;2.27;;;1.27;;
3571;SDS011;7958;53.024;12.970;2022-10-16T07:50:12;3.07;;;1.60;;
3571;SDS011;7958;53.024;12.970;2022-10-16T07:52:39;2.20;;;1.70;;
3571;SDS011;7958;53.024;12.970;2022-10-16T07:55:06;1.70;;;1.60;;
3571;SDS011;7958;53.024;12.970;2022-10-16T07:57:33;3.13;;;1.70;;
3571;SDS011;7958;53.024;12.970;2022-10-16T08:00:02;2.00;;;1.57;;
3571;SDS011;7958;53.024;12.970;2022-10-16T08:02:31;2.27;;;1.50;;
3571;SDS011;7958;53.024;12.970;2022-10-16T08:04:58;3.03;;;1.60;;
3571;SDS011;7958;53.024;12.970;2022-10-16T08:07:24;1.80;;;1.70;;
3571;SDS011;7958;53.024;12.970;2022-10-16T08:09:51;5.17;;;1.80;;
3571;SDS011;7958;53.024;12.970;2022-10-16T08:12:17;1.80;;;1.60;;
3571;SDS011;7958;53.024;12.970;2022-10-16T08:14:44;2.07;;;1.80;;
3571;SDS011;7958;53.024;12.970;2022-10-16T08:17:10;1.70;;;1.60;;
3571;SDS011;7958;53.024;12.970;2022-10-16T08:19:41;2.20;;;2.00;;
3571;SDS011;7958;53.024;12.970;2022-10-16T08:22:10;1.80;;;1.70;;
3571;SDS011;7958;53.024;12.970;2022-10-16T08:24:37;2.40;;;1.67;;
3571;SDS011;7958;53.024;12.970;2022-10-16T08:27:03;5.80;;;1.70;;
3571;SDS011;7958;53.024;12.970;2022-10-16T08:29:30;1.93;;;1.73;;
3571;SDS011;7958;53.024;12.970;2022-10-16T08:31:57;1.70;;;1.60;;
3571;SDS011;7958;53.024;12.970;2022-10-16T08:34:24;1.67;;;1.57;;
3571;SDS011;7958;53.024;12.970;2022-10-16T08:36:53;2.50;;;1.53;;
3571;SDS011;7958;53.024;12.970;2022-10-16T08:39:20;4.03;;;1.90;;
3571;SDS011;7958;53.024;12.970;2022-10-16T08:41:57;1.77;;;1.50;;
3571;SDS011;7958;53.024;12.970;2022-10-16T08:44:54;2.97;;;1.40;;
3571;SDS011;7958;53.024;12.970;2022-10-16T08:47:31;2.40;;;1.40;;
3571;SDS011;7958;53.024;12.970;2022-10-16T08:50:09;4.10;;;1.50;;
3571;SDS011;7958;53.024;12.970;2022-10-16T08:52:40;1.40;;;1.30;;
3571;SDS011;7958;53.024;12.970;2022-10-16T08:55:09;2.77;;;1.83;;
3571;SDS011;7958;53.024;12.970;2022-10-16T08:57:58;8.73;;;1.80;;
3571;SDS011;7958;53.024;12.970;2022-10-16T09:00:25;2.47;;;1.40;;
3571;SDS011;7958;53.024;12.970;2022-10-16T09:02:52;4.00;;;1.30;;
3571;SDS011;7958;53.024;12.970;2022-10-16T09:05:32;1.90;;;1.50;;
3571;SDS011;7958;53.024;12.970;2022-10-16T09:08:18;1.60;;;1.50;;
3571;SDS011;7958;53.024;12.970;2022-10-16T09:10:51;3.90;;;1.70;;
3571;SDS011;7958;53.024;12.970;2022-10-16T09:13:23;2.60;;;1.67;;
3571;SDS011;7958;53.024;12.970;2022-10-16T09:15:55;2.40;;;1.73;;
3571;SDS011;7958;53.024;12.970;2022-10-16T09:18:29;1.50;;;1.37;;
3571;SDS011;7958;53.024;12.970;2022-10-16T09:21:01;1.57;;;1.47;;
3571;SDS011;7958;53.024;12.970;2022-10-16T09:23:35;5.07;;;1.63;;
3571;SDS011;7958;53.024;12.970;2022-10-16T09:26:03;1.63;;;1.40;;
3571;SDS011;7958;53.024;12.970;2022-10-16T09:28:31;2.20;;;1.60;;
3571;SDS011;7958;53.024;12.970;2022-10-16T09:30:58;4.20;;;1.63;;
3571;SDS011;7958;53.024;12.970;2022-10-16T09:33:25;2.40;;;1.60;;
3571;SDS011;7958;53.024;12.970;2022-10-16T09:35:55;2.43;;;1.77;;
3571;SDS011;7958;53.024;12.970;2022-10-16T09:38:25;2.20;;;1.20;;
3571;SDS011;7958;53.024;12.970;2022-10-16T09:40:54;1.60;;;1.50;;
3571;SDS011;7958;53.024;12.970;2022-10-16T09:43:22;4.07;;;1.70;;
3571;SDS011;7958;53.024;12.970;2022-10-16T09:45:56;3.00;;;1.40;;
3571;SDS011;7958;53.024;12.970;2022-10-16T09:48:25;2.10;;;1.33;;
3571;SDS011;7958;53.024;12.970;2022-10-16T09:50:57;1.37;;;1.10;;
3571;SDS011;7958;53.024;12.970;2022-10-16T09:53:24;1.17;;;1.00;;
3571;SDS011;7958;53.024;12.970;2022-10-16T09:55:54;1.63;;;1.30;;
3571;SDS011;7958;53.024;12.970;2022-10-16T09:58:21;3.83;;;1.33;;
3571;SDS011;7958;53.024;12.970;2022-10-16T10:00:49;1.90;;;1.33;;
3571;SDS011;7958;53.024;12.970;2022-10-16T10:03:17;1.93;;;1.40;;
3571;SDS011;7958;53.024;12.970;2022-10-16T10:05:56;1.53;;;1.43;;
3571;SDS011;7958;53.024;12.970;2022-10-16T10:08:23;3.13;;;1.53;;
3571;SDS011;7958;53.024;12.970;2022-10-16T10:10:49;1.87;;;1.30;;
3571;SDS011;7958;53.024;12.970;2022-10-16T10:13:18;1.50;;;1.40;;
3571;SDS011;7958;53.024;12.970;2022-10-16T10:15:46;1.50;;;1.40;;
3571;SDS011;7958;53.024;12.970;2022-10-16T10:18:16;1.37;;;1.10;;
3571;SDS011;7958;53.024;12.970;2022-10-16T10:20:43;6.67;;;1.93;;
3571;SDS011;7958;53.024;12.970;2022-10-16T10:23:19;2.20;;;1.40;;
3571;SDS011;7958;53.024;12.970;2022-10-16T10:25:49;1.57;;;1.47;;
3571;SDS011;7958;53.024;12.970;2022-10-16T10:31:13;1.67;;;1.20;;
3571;SDS011;7958;53.024;12.970;2022-10-16T10:33:41;3.17;;;1.40;;
3571;SDS011;7958;53.024;12.970;2022-10-16T10:38:59;1.63;;;1.37;;
3571;SDS011;7958;53.024;12.970;2022-10-16T10:41:36;1.17;;;1.07;;
3571;SDS011;7958;53.024;12.970;2022-10-16T10:44:22;8.60;;;1.70;;
3571;SDS011;7958;53.024;12.970;2022-10-16T10:46:55;2.83;;;1.20;;
3571;SDS011;7958;53.024;12.970;2022-10-16T10:49:30;2.10;;;1.10;;
3571;SDS011;7958;53.024;12.970;2022-10-16T10:52:07;2.10;;;1.33;;
3571;SDS011;7958;53.024;12.970;2022-10-16T10:54:41;4.90;;;1.30;;
3571;SDS011;7958;53.024;12.970;2022-10-16T10:57:17;2.03;;;1.07;;
3571;SDS011;7958;53.024;12.970;2022-10-16T11:02:36;1.67;;;1.20;;
3571;SDS011;7958;53.024;12.970;2022-10-16T11:07:52;1.47;;;1.37;;
3571;SDS011;7958;53.024;12.970;2022-10-16T11:10:21;1.63;;;1.00;;
3571;SDS011;7958;53.024;12.970;2022-10-16T11:12:50;3.30;;;1.40;;
3571;SDS011;7958;53.024;12.970;2022-10-16T11:15:21;1.30;;;1.23;;
3571;SDS011;7958;53.024;12.970;2022-10-16T11:17:51;2.30;;;1.10;;
3571;SDS011;7958;53.024;12.970;2022-10-16T11:20:21;1.20;;;1.13;;
3571;SDS011;7958;53.024;12.970;2022-10-16T11:22:50;1.57;;;1.17;;
3571;SDS011;7958;53.024;12.970;2022-10-16T11:25:20;1.70;;;1.10;;
3571;SDS011;7958;53.024;12.970;2022-10-16T11:27:49;2.73;;;1.33;;
3571;SDS011;7958;53.024;12.970;2022-10-16T11:30:20;1.40;;;1.30;;
3571;SDS011;7958;53.024;12.970;2022-10-16T11:32:56;2.17;;;1.13;;
3571;SDS011;7958;53.024;12.970;2022-10-16T11:35:32;2.40;;;1.10;;
3571;SDS011;7958;53.024;12.970;2022-10-16T11:38:03;1.23;;;1.07;;
3571;SDS011;7958;53.024;12.970;2022-10-16T11:40:37;4.23;;;1.50;;
3571;SDS011;7958;53.024;12.970;2022-10-16T11:43:08;2.53;;;1.00;;
3571;SDS011;7958;53.024;12.970;2022-10-16T11:45:41;1.80;;;1.07;;
3571;SDS011;7958;53.024;12.970;2022-10-16T11:48:12;1.30;;;1.20;;
3571;SDS011;7958;53.024;12.970;2022-10-16T11:50:46;1.23;;;1.17;;
3571;SDS011;7958;53.024;12.970;2022-10-16T11:53:18;1.13;;;1.07;;
3571;SDS011;7958;53.024;12.970;2022-10-16T11:55:49;1.37;;;1.10;;
3571;SDS011;7958;53.024;12.970;2022-10-16T11:58:20;1.03;;;1.03;;
3571;SDS011;7958;53.024;12.970;2022-10-16T12:00:55;2.30;;;1.27;;
3571;SDS011;7958;53.024;12.970;2022-10-16T12:03:26;1.30;;;1.20;;
3571;SDS011;7958;53.024;12.970;2022-10-16T12:05:58;4.60;;;1.17;;
3571;SDS011;7958;53.024;12.970;2022-10-16T12:08:45;0.90;;;0.90;;
3571;SDS011;7958;53.024;12.970;2022-10-16T12:11:20;1.37;;;1.13;;
3571;SDS011;7958;53.024;12.970;2022-10-16T12:13:50;2.00;;;1.17;;
3571;SDS011;7958;53.024;12.970;2022-10-16T12:16:23;0.80;;;0.80;;
3571;SDS011;7958;53.024;12.970;2022-10-16T12:18:49;2.50;;;0.80;;
3571;SDS011;7958;53.024;12.970;2022-10-16T12:21:16;0.97;;;0.97;;
3571;SDS011;7958;53.024;12.970;2022-10-16T12:23:47;2.60;;;1.00;;
3571;SDS011;7958;53.024;12.970;2022-10-16T12:26:23;1.10;;;1.00;;
3571;SDS011;7958;53.024;12.970;2022-10-16T12:28:50;2.17;;;1.03;;
3571;SDS011;7958;53.024;12.970;2022-10-16T12:31:17;2.20;;;1.07;;
3571;SDS011;7958;53.024;12.970;2022-10-16T12:33:52;1.63;;;0.80;;
3571;SDS011;7958;53.024;12.970;2022-10-16T12:36:26;1.20;;;1.10;;
3571;SDS011;7958;53.024;12.970;2022-10-16T12:38:54;2.77;;;0.80;;
3571;SDS011;7958;53.024;12.970;2022-10-16T12:41:24;1.20;;;0.87;;
3571;SDS011;7958;53.024;12.970;2022-10-16T12:43:52;1.40;;;1.13;;
3571;SDS011;7958;53.024;12.970;2022-10-16T12:46:21;1.23;;;0.83;;
3571;SDS011;7958;53.024;12.970;2022-10-16T12:49:20;1.83;;;0.90;;
3571;SDS011;7958;53.024;12.970;2022-10-16T12:51:49;2.40;;;0.90;;
3571;SDS011;7958;53.024;12.970;2022-10-16T12:54:16;0.93;;;0.90;;
3571;SDS011;7958;53.024;12.970;2022-10-16T12:56:47;2.07;;;0.90;;
3571;SDS011;7958;53.024;12.970;2022-10-16T12:59:21;1.10;;;1.00;;
3571;SDS011;7958;53.024;12.970;2022-10-16T13:01:57;1.07;;;0.80;;
3571;SDS011;7958;53.024;12.970;2022-10-16T13:04:48;2.03;;;0.90;;
3571;SDS011;7958;53.024;12.970;2022-10-16T13:07:35;1.13;;;0.87;;
3571;SDS011;7958;53.024;12.970;2022-10-16T13:10:14;1.20;;;0.90;;
3571;SDS011;7958;53.024;12.970;2022-10-16T13:15:55;2.40;;;1.00;;
3571;SDS011;7958;53.024;12.970;2022-10-16T13:18:29;3.30;;;1.00;;
3571;SDS011;7958;53.024;12.970;2022-10-16T13:21:05;1.03;;;0.93;;
3571;SDS011;7958;53.024;12.970;2022-10-16T13:23:38;0.80;;;0.77;;
3571;SDS011;7958;53.024;12.970;2022-10-16T13:26:12;2.07;;;1.03;;
3571;SDS011;7958;53.024;12.970;2022-10-16T13:28:44;2.10;;;1.27;;
3571;SDS011;7958;53.024;12.970;2022-10-16T13:31:15;2.17;;;1.50;;
3571;SDS011;7958;53.024;12.970;2022-10-16T13:33:45;3.07;;;1.10;;
3571;SDS011;7958;53.024;12.970;2022-10-16T13:36:19;0.83;;;0.80;;
3571;SDS011;7958;53.024;12.970;2022-10-16T13:38:47;1.53;;;0.90;;
3571;SDS011;7958;53.024;12.970;2022-10-16T13:41:14;0.80;;;0.80;;
3571;SDS011;7958;53.024;12.970;2022-10-16T13:43:42;1.27;;;0.70;;
3571;SDS011;7958;53.024;12.970;2022-10-16T13:46:11;1.57;;;0.77;;
3571;SDS011;7958;53.024;12.970;2022-10-16T13:48:40;0.60;;;0.60;;
3571;SDS011;7958;53.024;12.970;2022-10-16T13:51:11;1.00;;;0.77;;
3571;SDS011;7958;53.024;12.970;2022-10-16T13:53:40;1.20;;;0.90;;
3571;SDS011;7958;53.024;12.970;2022-10-16T13:56:09;0.80;;;0.80;;
3571;SDS011;7958;53.024;12.970;2022-10-16T13:58:37;1.13;;;0.80;;
3571;SDS011;7958;53.024;12.970;2022-10-16T14:01:05;1.00;;;0.80;;
3571;SDS011;7958;53.024;12.970;2022-10-16T14:03:37;2.00;;;1.00;;
3571;SDS011;7958;53.024;12.970;2022-10-16T14:06:11;0.90;;;0.90;;
3571;SDS011;7958;53.024;12.970;2022-10-16T14:08:48;1.57;;;0.90;;
3571;SDS011;7958;53.024;12.970;2022-10-16T14:11:20;1.70;;;1.10;;
3571;SDS011;7958;53.024;12.970;2022-10-16T14:13:48;0.90;;;0.90;;
3571;SDS011;7958;53.024;12.970;2022-10-16T14:16:16;1.90;;;1.20;;
3571;SDS011;7958;53.024;12.970;2022-10-16T14:18:45;0.77;;;0.77;;
3571;SDS011;7958;53.024;12.970;2022-10-16T14:21:13;1.10;;;1.00;;
3571;SDS011;7958;53.024;12.970;2022-10-16T14:23:41;0.90;;;0.80;;
3571;SDS011;7958;53.024;12.970;2022-10-16T14:26:17;0.80;;;0.80;;
3571;SDS011;7958;53.024;12.970;2022-10-16T14:28:45;1.20;;;1.10;;
3571;SDS011;7958;53.024;12.970;2022-10-16T14:31:29;4.50;;;1.53;;
3571;SDS011;7958;53.024;12.970;2022-10-16T14:33:56;1.53;;;1.20;;
3571;SDS011;7958;53.024;12.970;2022-10-16T14:36:24;1.00;;;1.00;;
3571;SDS011;7958;53.024;12.970;2022-10-16T14:39:02;1.20;;;0.87;;
3571;SDS011;7958;53.024;12.970;2022-10-16T14:41:31;2.00;;;1.23;;
3571;SDS011;7958;53.024;12.970;2022-10-16T14:44:01;0.90;;;0.90;;
3571;SDS011;7958;53.024;12.970;2022-10-16T14:46:30;0.90;;;0.90;;
3571;SDS011;7958;53.024;12.970;2022-10-16T14:49:01;1.03;;;1.03;;
3571;SDS011;7958;53.024;12.970;2022-10-16T14:51:30;2.27;;;0.93;;
3571;SDS011;7958;53.024;12.970;2022-10-16T14:53:56;0.80;;;0.80;;
3571;SDS011;7958;53.024;12.970;2022-10-16T14:56:23;2.80;;;0.93;;
3571;SDS011;7958;53.024;12.970;2022-10-16T14:58:53;1.00;;;0.80;;
3571;SDS011;7958;53.024;12.970;2022-10-16T15:01:20;0.80;;;0.80;;
3571;SDS011;7958;53.024;12.970;2022-10-16T15:03:47;2.80;;;1.00;;
3571;SDS011;7958;53.024;12.970;2022-10-16T15:06:14;1.87;;;1.00;;
3571;SDS011;7958;53.024;12.970;2022-10-16T15:08:41;0.97;;;0.90;;
3571;SDS011;7958;53.024;12.970;2022-10-16T15:11:08;1.00;;;0.90;;
3571;SDS011;7958;53.024;12.970;2022-10-16T15:13:39;3.90;;;1.50;;
3571;SDS011;7958;53.024;12.970;2022-10-16T15:16:08;2.10;;;1.90;;
3571;SDS011;7958;53.024;12.970;2022-10-16T15:18:37;2.83;;;1.47;;
3571;SDS011;7958;53.024;12.970;2022-10-16T15:21:03;1.13;;;0.83;;
3571;SDS011;7958;53.024;12.970;2022-10-16T15:23:30;2.20;;;1.03;;
3571;SDS011;7958;53.024;12.970;2022-10-16T15:25:56;1.07;;;0.97;;
3571;SDS011;7958;53.024;12.970;2022-10-16T15:28:24;1.93;;;1.10;;